Latest Coastal Weather Observations for Holmes Reef

IDQ60701

Issued at 7:21 am EST Wednesday 1 July 2015 (issued every 10 minutes, with the page automatically refreshed every 10 minutes)

About coastal observations | Map of coastal stations | Coastal observations for QLD | Marine services | Other Formats
Station Details ID: 200732 Name: HOLMES REEF Lat: -16.47 Lon: 147.87 Height: 1.9 m
Data from the previous 72 hours. | See also: Recent months at Holmes Reef
Date/Time
EST
Temp

°C
Wind Pressure Rain
since 9am
mm
Weather Cloud Vis
km
Sea
Height
m
Swell
Dir
 
Speed
knots
Gust
knots
hPa Trend Height
m
Period
s
Dir
01/07:15am 24.1 SE 24 28 1018.2 - - - - - - - - -
01/07:00am 24.4 ESE 23 27 1018.3 - - - - - - - - -
01/06:30am 24.6 SE 23 26 1018.2 - - - - - - - - -
01/06:15am 24.7 SE 22 - 1017.8 - - - - - - - - -
01/06:00am 24.6 SE 23 26 1017.9 - - - - - - - - -
01/05:30am 24.7 SE 22 25 1017.6 - - - - - - - - -
01/05:15am 23.7 SE 19 - 1017.5 - - - - - - - - -
01/05:00am 23.7 ESE 21 24 1017.8 - - - - - - - - -
01/04:30am 22.9 ESE 24 28 1017.8 - - - - - - - - -
01/04:15am 23.5 ESE 25 - 1017.4 - - - - - - - - -
01/04:00am 24.5 SE 21 25 1017.5 - - - - - - - - -
01/03:30am 24.3 SE 22 25 1017.5 - - - - - - - - -
01/03:15am 24.0 SE 22 - 1017.2 - - - - - - - - -
01/03:00am 23.3 SE 26 33 1017.6 - - - - - - - - -
01/02:30am 24.3 ESE 23 27 1017.5 - - - - - - - - -
01/02:15am 23.9 SE 20 - 1017.3 - - - - - - - - -
01/02:00am 24.2 ESE 22 26 1017.7 - - - - - - - - -
01/01:30am 23.8 ESE 21 24 1018.0 - - - - - - - - -
01/01:15am 23.4 ESE 22 - 1017.9 - - - - - - - - -
01/01:00am 23.2 ESE 26 29 1018.2 - - - - - - - - -
01/12:30am 24.0 E 22 26 1018.2 - - - - - - - - -
01/12:28am 24.4 E 21 26 1018.2 - - - - - - - - -
01/12:15am 24.1 SE 22 - 1017.9 - - - - - - - - -
 
Date/Time
EST
Temp

°C
Wind Pressure Rain
since 9am
mm
Weather Cloud Vis
km
Sea
Height
m
Swell
Dir
 
Speed
knots
Gust
knots
hPa Trend Height
m
Period
s
Dir
30/11:30pm 23.0 ESE 25 29 1018.5 - - - - - - - - -
30/11:15pm 23.7 SE 24 - 1018.3 - - - - - - - - -
30/11:00pm 24.8 SE 20 26 1018.6 - - - - - - - - -
30/10:30pm 23.7 SE 24 30 1019.0 - - - - - - - - -
30/10:15pm 24.9 ESE 21 - 1018.7 - - - - - - - - -
30/10:00pm 24.5 SE 16 23 1018.9 - - - - - - - - -
30/09:46pm 24.6 SE 20 30 1018.9 - - - - - - - - -
30/09:30pm 25.0 SE 19 23 1019.1 - - - - - - - - -
30/09:15pm 24.8 SE 20 - 1018.7 - - - - - - - - -
30/09:00pm 24.8 SE 20 23 1018.9 - - - - - - - - -
30/08:30pm 24.9 SE 20 23 1018.8 - - - - - - - - -
30/08:15pm 24.9 ESE 21 - 1018.3 - - - - - - - - -
30/08:00pm 25.1 ESE 21 24 1018.5 - - - - - - - - -
30/07:30pm 24.8 ESE 22 25 1018.1 - - - - - - - - -
30/07:15pm 24.8 ESE 22 - 1017.7 - - - - - - - - -
30/07:00pm 25.0 SE 21 25 1017.9 - - - - - - - - -
30/06:30pm 24.8 SE 21 24 1017.6 - - - - - - - - -
30/06:15pm 24.9 SE 20 - 1017.1 - - - - - - - - -
30/06:00pm 25.0 ESE 20 25 1017.4 - - - - - - - - -
30/05:30pm 24.9 SE 20 23 1017.2 - - - - - - - - -
30/05:15pm 24.9 SE 20 - 1016.9 - - - - - - - - -
30/05:00pm 25.1 SE 20 22 1017.1 - - - - - - - - -
30/04:30pm 25.1 SE 19 22 1016.8 - - - - - - - - -
30/04:15pm 25.0 SE 18 - 1016.4 - - - - - - - - -
30/04:00pm 25.1 ESE 18 21 1016.8 - - - - - - - - -
30/03:30pm 25.1 SE 19 22 1016.6 - - - - - - - - -
30/03:15pm 25.2 ESE 19 - 1016.3 - - - - - - - - -
30/03:00pm 25.1 SE 19 23 1016.7 - - - - - - - - -
30/02:30pm 25.1 ESE 19 22 1016.8 - - - - - - - - -
30/02:15pm 25.2 ESE 20 - 1016.5 - - - - - - - - -
30/02:00pm 25.2 ESE 19 22 1016.9 - - - - - - - - -
30/01:30pm 25.2 ESE 18 23 1017.1 - - - - - - - - -
30/01:15pm 25.0 ESE 20 - 1017.0 - - - - - - - - -
30/01:00pm 25.3 ESE 20 22 1017.5 - - - - - - - - -
30/12:30pm 25.2 ESE 20 23 1017.9 - - - - - - - - -
30/12:15pm 25.2 E 20 - 1017.8 - - - - - - - - -
30/12:00pm 25.2 E 21 25 1018.1 - - - - - - - - -
30/11:30am 25.2 E 22 25 1018.4 - - - - - - - - -
30/11:15am 25.1 E 22 - 1018.2 - - - - - - - - -
30/11:00am 25.3 E 23 25 1018.5 - - - - - - - - -
30/10:30am 25.3 E 21 25 1018.8 - - - - - - - - -
30/10:15am 25.2 E 22 - 1018.3 - - - - - - - - -
30/10:00am 25.3 E 23 26 1018.6 - - - - - - - - -
30/09:30am 25.3 E 24 28 1018.7 - - - - - - - - -
30/09:15am 25.2 E 26 - 1018.4 - - - - - - - - -
30/09:00am 25.3 E 25 30 1018.5 - - - - - - - - -
30/08:30am 25.1 E 25 30 1018.1 - - - - - - - - -
30/08:15am 25.2 E 27 - 1017.7 - - - - - - - - -
30/08:00am 25.0 E 25 30 1017.9 - - - - - - - - -
30/07:30am 25.2 E 25 30 1017.5 - - - - - - - - -
30/07:15am 25.0 E 24 - 1017.1 - - - - - - - - -
30/07:00am 24.9 E 25 31 1017.2 - - - - - - - - -
30/06:30am 24.7 E 24 28 1016.9 - - - - - - - - -
30/06:15am 24.8 E 25 - 1016.5 - - - - - - - - -
30/06:00am 24.9 E 24 29 1016.6 - - - - - - - - -
30/05:30am 24.9 E 24 28 1016.6 - - - - - - - - -
30/05:15am 25.1 E 25 - 1016.2 - - - - - - - - -
30/05:00am 25.2 E 24 28 1016.4 - - - - - - - - -
30/04:30am 25.2 E 25 30 1016.2 - - - - - - - - -
30/04:15am 25.1 E 23 - 1015.9 - - - - - - - - -
30/04:00am 25.0 E 24 28 1016.2 - - - - - - - - -
30/03:30am 25.3 E 24 28 1016.2 - - - - - - - - -
30/03:15am 25.1 E 25 - 1015.8 - - - - - - - - -
30/03:00am 25.1 E 24 28 1016.2 - - - - - - - - -
30/02:30am 25.1 E 24 27 1016.3 - - - - - - - - -
30/02:15am 25.1 E 24 - 1016.1 - - - - - - - - -
30/02:00am 25.2 E 22 26 1016.4 - - - - - - - - -
30/01:30am 25.2 E 21 25 1016.6 - - - - - - - - -
30/01:15am 25.0 E 21 - 1016.4 - - - - - - - - -
30/01:00am 25.3 E 23 27 1016.8 - - - - - - - - -
30/12:30am 25.3 E 22 25 1017.0 - - - - - - - - -
30/12:15am 25.4 E 22 - 1016.8 - - - - - - - - -
30/12:00am 25.3 E 22 25 1017.0 - - - - - - - - -
 
Date/Time
EST
Temp

°C
Wind Pressure Rain
since 9am
mm
Weather Cloud Vis
km
Sea
Height
m
Swell
Dir
 
Speed
knots
Gust
knots
hPa Trend Height
m
Period
s
Dir
29/11:30pm 25.3 E 24 27 1017.3 - - - - - - - - -
29/11:15pm 25.4 E 25 - 1017.0 - - - - - - - - -
29/11:00pm 25.5 E 23 28 1017.5 - - - - - - - - -
29/10:30pm 25.5 E 24 29 1017.5 - - - - - - - - -
29/10:15pm 25.4 E 24 - 1017.3 - - - - - - - - -
29/10:00pm 25.5 E 24 28 1017.6 - - - - - - - - -
29/09:30pm 25.5 E 24 27 1017.6 - - - - - - - - -
29/09:15pm 25.4 E 25 - 1017.3 - - - - - - - - -
29/09:00pm 25.5 E 26 30 1017.5 - - - - - - - - -
29/08:30pm 25.2 E 23 26 1017.4 - - - - - - - - -
29/08:15pm 25.3 E 22 - 1017.0 - - - - - - - - -
29/08:00pm 25.2 E 23 26 1017.4 - - - - - - - - -
29/07:30pm 25.3 E 22 26 1017.2 - - - - - - - - -
29/07:15pm 24.6 E 16 - 1016.8 - - - - - - - - -
29/07:00pm 24.1 E 15 18 1016.9 - - - - - - - - -
29/06:30pm 23.3 ENE 14 17 1016.6 - - - - - - - - -
29/06:15pm 22.6 ENE 16 - 1016.3 - - - - - - - - -
29/06:00pm 22.2 NE 21 26 1016.7 - - - - - - - - -
29/05:30pm 21.8 NNE 21 27 1016.6 - - - - - - - - -
29/05:24pm 21.8 NNE 22 31 1016.7 - - - - - - - - -
29/05:15pm 21.9 NE 30 - 1016.6 - - - - - - - - -
29/05:00pm 22.5 ENE 33 38 1016.6 - - - - - - - - -
29/04:49pm 22.0 ENE 33 37 1016.6 - - - - - - - - -
29/04:41pm 23.0 ENE 22 32 1016.5 - - - - - - - - -
29/04:30pm 22.6 ENE 23 26 1016.4 - - - - - - - - -
29/04:15pm 22.5 ENE 25 - 1016.1 - - - - - - - - -
29/04:00pm 22.5 ENE 23 28 1016.3 - - - - - - - - -
29/03:30pm 23.2 ENE 25 28 1016.2 - - - - - - - - -
29/03:15pm 22.3 ENE 26 - 1016.0 - - - - - - - - -
29/02:15pm 24.1 E 24 - 1015.8 - - - - - - - - -
29/01:15pm 23.2 ENE 19 - 1016.5 - - - - - - - - -
29/12:15pm 24.2 E 20 - 1017.0 - - - - - - - - -
29/11:15am 25.0 E 11 - 1017.9 - - - - - - - - -
29/10:15am 24.9 E 13 - 1018.3 - - - - - - - - -
29/09:15am 23.5 NNW 3 - 1018.6 - - - - - - - - -
29/08:15am 23.5 E 8 - 1018.4 - - - - - - - - -
29/07:15am 24.0 ESE 11 - 1017.8 - - - - - - - - -
29/06:15am 24.2 E 12 - 1017.1 - - - - - - - - -
29/05:15am 23.1 E 15 - 1016.9 - - - - - - - - -
29/04:15am 22.7 E 18 - 1016.4 - - - - - - - - -
29/03:15am 24.5 E 13 - 1016.6 - - - - - - - - -
29/02:15am 24.2 E 15 - 1016.7 - - - - - - - - -
29/01:15am 24.6 E 17 - 1017.4 - - - - - - - - -
29/12:15am 24.0 ESE 15 - 1017.6 - - - - - - - - -
 
Date/Time
EST
Temp

°C
Wind Pressure Rain
since 9am
mm
Weather Cloud Vis
km
Sea
Height
m
Swell
Dir
 
Speed
knots
Gust
knots
hPa Trend Height
m
Period
s
Dir
28/11:15pm 23.7 SE 19 - 1018.1 - - - - - - - - -
28/10:15pm 24.0 ESE 18 - 1018.3 - - - - - - - - -
28/09:15pm 24.0 ESE 20 - 1018.2 - - - - - - - - -
28/08:15pm 24.1 ESE 19 - 1018.1 - - - - - - - - -
28/07:15pm 24.7 ESE 16 - 1017.6 - - - - - - - - -
28/06:15pm 24.2 ESE 16 - 1017.2 - - - - - - - - -
28/05:15pm 23.6 ESE 12 - 1017.0 - - - - - - - - -
28/04:15pm 22.0 ENE 10 - 1016.7 - - - - - - - - -
28/03:15pm 24.3 ESE 20 - 1016.4 - - - - - - - - -
28/02:15pm 24.5 ESE 19 - 1016.6 - - - - - - - - -
28/01:15pm 24.1 E 18 - 1016.8 - - - - - - - - -
28/12:15pm 23.6 ESE 23 - 1017.5 - - - - - - - - -
28/11:15am 23.6 ESE 14 - 1018.3 - - - - - - - - -
28/10:15am 24.3 ESE 19 - 1018.7 - - - - - - - - -
28/09:15am 24.4 ESE 19 - 1018.8 - - - - - - - - -
28/08:15am 24.7 SE 19 - 1018.5 - - - - - - - - -

Other Formats:

Comma delimited format used in spreadsheet applications
http://www.bom.gov.au/fwo/IDQ60701/IDQ60701.94289.axf

JavaScript Object Notation format (JSON) in row-major order
http://www.bom.gov.au/fwo/IDQ60701/IDQ60701.94289.json